Time;durP1;ratioP1;P1;durP2;ratioP2;P2;SDS_P1;SDS_P2;PMS_P1;PMS_P2;Temp;Humidity;BMP_temperature;BMP_pressure;BME280_temperature;BME280_humidity;BME280_pressure;Samples;Min_cycle;Max_cycle;Signal;HPM_P1;HPM_P2
2022/01/05 00:02:10;;;;;;;1.10;0.93;;;6.40;98.00;;;;;;5054944;28;20526;-70
2022/01/05 00:04:39;;;;;;;1.13;0.90;;;6.40;98.00;;;;;;5054927;28;20463;-70
2022/01/05 00:07:06;;;;;;;1.20;1.00;;;6.40;98.00;;;;;;5054813;28;20491;-70
2022/01/05 00:09:33;;;;;;;1.17;1.00;;;6.40;98.00;;;;;;5054640;28;21341;-70
2022/01/05 00:12:00;;;;;;;1.20;1.20;;;6.40;98.00;;;;;;5054665;28;20826;-70
2022/01/05 00:14:27;;;;;;;1.87;1.20;;;6.40;98.00;;;;;;5054678;28;20496;-70
2022/01/05 00:16:54;;;;;;;1.20;1.20;;;6.50;98.00;;;;;;5053582;28;20554;-70
2022/01/05 00:19:22;;;;;;;1.20;1.00;;;6.40;98.00;;;;;;5054685;28;21000;-70
2022/01/05 00:21:51;;;;;;;1.10;1.00;;;6.40;98.00;;;;;;5054533;28;21084;-70
2022/01/05 00:24:18;;;;;;;1.20;0.97;;;6.40;98.00;;;;;;5054394;28;20513;-70
2022/01/05 00:26:45;;;;;;;1.53;1.40;;;6.40;98.00;;;;;;5054185;28;20487;-70
2022/01/05 00:29:12;;;;;;;1.20;1.00;;;6.40;98.00;;;;;;5054114;28;21021;-70
2022/01/05 00:31:45;;;;;;;1.10;1.00;;;6.40;98.00;;;;;;5054070;28;20974;-70
2022/01/05 00:34:12;;;;;;;1.17;0.97;;;6.50;98.00;;;;;;5053974;28;20951;-70
2022/01/05 00:36:40;;;;;;;1.20;1.00;;;6.40;98.00;;;;;;5053862;28;20822;-70
2022/01/05 00:39:08;;;;;;;1.13;0.90;;;6.40;98.00;;;;;;5054099;28;20490;-70
2022/01/05 00:41:35;;;;;;;1.13;0.90;;;6.40;98.00;;;;;;5052549;28;20989;-70
2022/01/05 00:44:02;;;;;;;1.10;0.90;;;6.30;98.00;;;;;;5054072;28;20485;-70
2022/01/05 00:46:29;;;;;;;1.20;0.90;;;6.30;98.00;;;;;;5053869;28;20496;-70
2022/01/05 00:48:56;;;;;;;1.20;1.00;;;6.20;98.00;;;;;;5053892;28;20965;-70
2022/01/05 00:51:23;;;;;;;1.20;0.90;;;6.20;98.00;;;;;;5053742;28;20498;-70
2022/01/05 00:53:50;;;;;;;1.20;0.90;;;6.20;98.00;;;;;;5053932;28;20962;-70
2022/01/05 00:56:19;;;;;;;1.33;1.20;;;6.30;98.00;;;;;;5053679;28;20490;-70
2022/01/05 00:58:46;;;;;;;1.20;0.90;;;6.30;98.00;;;;;;5053976;28;20487;-70
2022/01/05 01:01:13;;;;;;;1.20;1.07;;;6.30;98.00;;;;;;5053735;28;20902;-70
2022/01/05 01:03:42;;;;;;;1.20;0.90;;;6.40;98.00;;;;;;5053564;28;20520;-70
2022/01/05 01:06:09;;;;;;;1.23;0.97;;;6.50;98.00;;;;;;5036113;28;20455;-70
2022/01/05 01:08:36;;;;;;;1.20;0.90;;;6.50;98.00;;;;;;5053640;28;20454;-70
2022/01/05 01:11:03;;;;;;;1.20;1.00;;;6.50;98.00;;;;;;5053326;28;20859;-70
2022/01/05 01:13:31;;;;;;;1.20;1.00;;;6.50;98.00;;;;;;5053395;28;20471;-70
2022/01/05 01:15:59;;;;;;;1.20;0.90;;;6.50;98.00;;;;;;5052304;28;20451;-70
2022/01/05 01:18:26;;;;;;;1.20;0.90;;;6.50;98.00;;;;;;5052196;28;20967;-70
2022/01/05 01:20:53;;;;;;;1.13;0.90;;;6.50;98.00;;;;;;5052734;28;20552;-70
2022/01/05 01:23:23;;;;;;;1.20;0.90;;;6.50;98.00;;;;;;5052388;28;20494;-70
2022/01/05 01:25:51;;;;;;;1.20;1.00;;;6.40;98.00;;;;;;5052451;28;20485;-70
2022/01/05 01:28:19;;;;;;;1.10;1.00;;;6.40;98.00;;;;;;5052824;28;20487;-70
2022/01/05 01:30:50;;;;;;;1.20;1.00;;;6.50;98.00;;;;;;5053073;28;20454;-70
2022/01/05 01:33:18;;;;;;;1.17;1.00;;;6.50;98.00;;;;;;5052896;28;20817;-70
2022/01/05 01:35:45;;;;;;;3.53;1.20;;;6.60;98.00;;;;;;5052937;28;20543;-70
2022/01/05 01:38:12;;;;;;;1.20;0.90;;;6.60;98.00;;;;;;5053052;28;20464;-70
2022/01/05 01:40:40;;;;;;;1.20;1.00;;;6.60;98.00;;;;;;5052800;28;20800;-70
2022/01/05 01:43:07;;;;;;;1.20;1.00;;;6.60;98.00;;;;;;5053190;28;20565;-70
2022/01/05 01:45:35;;;;;;;1.17;0.90;;;6.60;98.00;;;;;;5053176;28;20922;-70
2022/01/05 01:48:04;;;;;;;1.20;1.00;;;6.60;98.00;;;;;;5053020;28;20460;-70
2022/01/05 01:50:32;;;;;;;1.13;0.90;;;6.60;98.00;;;;;;5052550;28;20451;-70
2022/01/05 01:53:00;;;;;;;1.20;0.90;;;6.60;98.00;;;;;;5051202;28;20460;-70
2022/01/05 01:55:27;;;;;;;1.17;0.90;;;6.60;98.00;;;;;;5052858;28;20486;-70
2022/01/05 01:57:56;;;;;;;1.20;1.20;;;6.70;98.00;;;;;;5051535;28;20494;-70
2022/01/05 02:00:23;;;;;;;1.20;1.00;;;6.70;98.00;;;;;;5051516;28;20485;-70
2022/01/05 02:02:51;;;;;;;1.20;0.90;;;6.60;98.00;;;;;;5052322;28;20527;-70
2022/01/05 02:05:20;;;;;;;1.10;0.90;;;6.70;98.00;;;;;;5052093;28;20895;-70
2022/01/05 02:07:47;;;;;;;1.20;0.93;;;6.70;98.00;;;;;;5050974;28;20459;-70
2022/01/05 02:10:16;;;;;;;1.17;0.90;;;6.70;98.00;;;;;;5052343;28;20981;-70
2022/01/05 02:12:44;;;;;;;1.20;1.00;;;6.70;98.00;;;;;;5052230;28;20484;-70
2022/01/05 02:15:12;;;;;;;1.10;0.97;;;6.70;98.00;;;;;;5052184;28;20494;-70
2022/01/05 02:17:52;;;;;;;1.20;1.10;;;6.70;98.00;;;;;;5052140;28;20492;-70
2022/01/05 02:20:22;;;;;;;1.20;1.00;;;6.70;98.00;;;;;;5052249;28;20481;-70
2022/01/05 02:22:51;;;;;;;1.20;0.90;;;6.70;98.00;;;;;;5051799;28;20520;-70
2022/01/05 02:25:18;;;;;;;1.20;1.00;;;6.70;98.00;;;;;;5052114;28;20502;-70
2022/01/05 02:27:47;;;;;;;1.20;1.00;;;6.70;98.00;;;;;;5051885;28;20496;-70
2022/01/05 02:30:20;;;;;;;1.20;0.97;;;6.60;98.00;;;;;;5051881;28;20493;-70
2022/01/05 02:32:48;;;;;;;1.20;0.90;;;6.60;98.00;;;;;;5050684;28;20512;-70
2022/01/05 02:35:15;;;;;;;1.20;0.90;;;6.60;98.00;;;;;;5051971;28;20479;-70
2022/01/05 02:37:42;;;;;;;1.20;0.90;;;6.60;98.00;;;;;;5051903;28;20488;-70
2022/01/05 02:40:13;;;;;;;1.20;0.90;;;6.60;98.00;;;;;;5051037;28;20561;-70
2022/01/05 02:42:41;;;;;;;1.20;0.90;;;6.60;98.00;;;;;;5051833;28;20483;-70
2022/01/05 02:45:09;;;;;;;1.20;1.00;;;6.60;98.00;;;;;;5051796;28;20529;-70
2022/01/05 02:47:37;;;;;;;1.20;1.00;;;6.70;98.00;;;;;;5051805;28;20518;-70
2022/01/05 02:50:06;;;;;;;1.20;0.90;;;6.70;98.00;;;;;;5051766;28;20513;-70
2022/01/05 02:52:33;;;;;;;1.20;0.97;;;6.70;98.00;;;;;;5051706;28;20517;-70
2022/01/05 02:55:00;;;;;;;1.20;0.90;;;6.70;98.00;;;;;;5051699;28;20488;-70
2022/01/05 02:57:29;;;;;;;1.20;0.90;;;6.70;98.00;;;;;;5052087;28;20463;-70
2022/01/05 02:59:57;;;;;;;1.20;0.90;;;6.70;98.00;;;;;;5051718;28;20464;-70
2022/01/05 03:02:25;;;;;;;1.20;0.90;;;6.70;98.00;;;;;;5051785;28;20575;-70
2022/01/05 03:04:52;;;;;;;1.20;1.00;;;6.70;98.00;;;;;;5051944;28;20469;-70
2022/01/05 03:07:19;;;;;;;1.20;1.00;;;6.70;98.00;;;;;;5051800;28;20495;-70
2022/01/05 03:09:46;;;;;;;1.20;0.90;;;6.70;98.00;;;;;;5052011;28;20540;-70
2022/01/05 03:12:13;;;;;;;1.20;0.90;;;6.80;98.00;;;;;;5051864;28;20483;-70
2022/01/05 03:14:42;;;;;;;1.20;0.90;;;6.80;98.00;;;;;;5052027;28;20467;-70
2022/01/05 03:17:09;;;;;;;1.20;1.00;;;6.80;98.00;;;;;;5050731;28;20554;-70
2022/01/05 03:19:37;;;;;;;1.20;1.00;;;6.80;98.00;;;;;;5051419;28;20485;-70
2022/01/05 03:22:05;;;;;;;1.20;0.90;;;6.70;98.00;;;;;;5051165;28;20541;-70
2022/01/05 03:24:34;;;;;;;1.20;1.00;;;6.70;98.00;;;;;;5051394;28;20509;-70
2022/01/05 03:27:01;;;;;;;1.20;0.90;;;6.60;98.00;;;;;;5051464;28;20463;-70
2022/01/05 03:29:28;;;;;;;1.20;0.90;;;6.60;98.00;;;;;;5051244;28;20456;-70
2022/01/05 03:31:57;;;;;;;1.20;1.00;;;6.60;98.00;;;;;;5051164;28;20492;-70
2022/01/05 03:34:24;;;;;;;1.20;1.00;;;6.60;98.00;;;;;;5051313;28;20518;-70
2022/01/05 03:36:52;;;;;;;1.10;0.90;;;6.70;98.00;;;;;;5051303;28;20547;-70
2022/01/05 03:39:19;;;;;;;1.20;0.90;;;6.70;98.00;;;;;;5051048;28;20505;-70
2022/01/05 03:41:48;;;;;;;1.20;1.00;;;6.60;98.00;;;;;;5051249;28;20517;-70
2022/01/05 03:44:15;;;;;;;1.20;1.00;;;6.50;98.00;;;;;;5051204;28;20521;-70
2022/01/05 03:46:42;;;;;;;1.20;0.90;;;6.60;98.00;;;;;;5051099;28;20460;-70
2022/01/05 03:49:10;;;;;;;1.20;1.00;;;6.60;98.00;;;;;;5051230;28;20868;-70
2022/01/05 03:51:37;;;;;;;1.20;1.00;;;6.60;98.00;;;;;;5053305;28;20494;-70
2022/01/05 03:54:04;;;;;;;1.20;1.00;;;6.70;98.00;;;;;;5054840;28;20457;-70
2022/01/05 03:56:32;;;;;;;1.20;0.90;;;6.70;98.00;;;;;;5055064;28;20554;-70
2022/01/05 03:58:59;;;;;;;1.20;1.00;;;6.70;98.00;;;;;;5054887;28;20948;-70
2022/01/05 04:01:26;;;;;;;1.20;1.00;;;6.70;98.00;;;;;;5053624;28;20543;-70
2022/01/05 04:03:53;;;;;;;1.20;0.90;;;6.70;98.00;;;;;;5054879;28;20567;-70
2022/01/05 04:06:22;;;;;;;1.20;1.00;;;6.60;98.00;;;;;;5054621;28;20540;-70
2022/01/05 04:08:49;;;;;;;1.20;1.00;;;6.60;98.00;;;;;;5055207;28;20461;-70
2022/01/05 04:11:16;;;;;;;1.20;1.00;;;6.60;98.00;;;;;;5053421;28;20546;-70
2022/01/05 04:13:44;;;;;;;1.20;1.00;;;6.60;98.00;;;;;;5054696;28;20497;-70
2022/01/05 04:16:12;;;;;;;1.20;0.90;;;6.60;98.00;;;;;;5054539;28;20530;-70
2022/01/05 04:18:40;;;;;;;1.20;1.00;;;6.50;98.00;;;;;;5054690;28;20492;-70
2022/01/05 04:21:07;;;;;;;1.20;1.00;;;6.50;98.00;;;;;;5054468;28;20554;-70
2022/01/05 04:23:36;;;;;;;1.20;0.90;;;6.60;98.00;;;;;;5054439;28;20482;-70
2022/01/05 04:26:03;;;;;;;1.20;1.00;;;6.60;98.00;;;;;;5054178;28;20494;-70
2022/01/05 04:28:31;;;;;;;1.20;0.90;;;6.60;98.00;;;;;;5054678;28;20458;-70
2022/01/05 04:30:58;;;;;;;1.20;0.90;;;6.60;98.00;;;;;;5054364;28;20941;-70
2022/01/05 04:33:25;;;;;;;1.20;1.00;;;6.60;98.00;;;;;;5054262;28;20495;-70
2022/01/05 04:35:52;;;;;;;1.20;0.90;;;6.50;98.00;;;;;;5054340;28;20529;-70
2022/01/05 04:38:19;;;;;;;2.27;1.77;;;6.50;98.00;;;;;;5054315;28;20544;-70
2022/01/05 04:40:47;;;;;;;1.20;0.90;;;6.50;98.00;;;;;;5054115;28;20961;-70
2022/01/05 04:43:16;;;;;;;1.20;1.00;;;6.50;98.00;;;;;;5052688;28;20580;-70
2022/01/05 04:45:43;;;;;;;1.20;0.90;;;6.60;98.00;;;;;;5053785;28;20857;-70
2022/01/05 04:48:10;;;;;;;1.20;1.00;;;6.50;98.00;;;;;;5052728;28;20554;-70
2022/01/05 04:50:37;;;;;;;1.20;1.00;;;6.50;98.00;;;;;;5053670;28;20961;-70
2022/01/05 04:53:04;;;;;;;1.20;1.00;;;6.50;98.00;;;;;;5053727;28;20865;-70
2022/01/05 04:55:51;;;;;;;1.20;1.00;;;6.50;98.00;;;;;;5053740;28;20477;-70
2022/01/05 04:58:20;;;;;;;1.20;1.00;;;6.40;98.00;;;;;;5053653;28;20982;-70
2022/01/05 05:00:47;;;;;;;1.20;0.90;;;6.20;98.00;;;;;;5053458;28;20517;-70
2022/01/05 05:03:14;;;;;;;1.13;0.90;;;6.20;98.00;;;;;;5053095;28;20518;-70
2022/01/05 05:05:41;;;;;;;1.13;0.90;;;6.20;98.00;;;;;;5053607;28;21044;-70
2022/01/05 05:08:08;;;;;;;1.17;0.90;;;6.10;98.00;;;;;;5053670;28;20872;-70
2022/01/05 05:10:35;;;;;;;1.10;0.90;;;6.20;98.00;;;;;;5053427;28;20956;-70
2022/01/05 05:13:08;;;;;;;1.20;0.90;;;6.20;98.00;;;;;;5053428;28;20881;-70
2022/01/05 05:15:36;;;;;;;1.20;0.97;;;6.20;98.00;;;;;;5053540;28;20486;-70
2022/01/05 05:18:04;;;;;;;1.13;0.90;;;6.10;98.00;;;;;;5053520;28;20461;-70
2022/01/05 05:20:33;;;;;;;1.20;1.00;;;6.00;98.00;;;;;;5053287;28;20497;-70
2022/01/05 05:23:00;;;;;;;1.13;1.00;;;5.90;98.00;;;;;;5053291;28;20828;-70
2022/01/05 05:25:27;;;;;;;1.10;1.00;;;5.90;98.00;;;;;;5052100;28;20489;-70
2022/01/05 05:27:54;;;;;;;1.20;1.00;;;5.70;98.00;;;;;;5053258;28;20481;-70
2022/01/05 05:30:21;;;;;;;1.10;1.00;;;5.70;98.00;;;;;;5053062;28;20493;-70
2022/01/05 05:32:50;;;;;;;1.20;1.10;;;5.70;98.00;;;;;;5053323;28;20493;-70
2022/01/05 05:35:17;;;;;;;1.17;0.90;;;5.70;98.00;;;;;;5053045;28;20479;-70
2022/01/05 05:37:44;;;;;;;1.10;0.90;;;5.60;98.00;;;;;;5052924;28;20491;-70
2022/01/05 05:40:12;;;;;;;1.10;0.90;;;5.60;98.00;;;;;;5051664;28;20465;-70
2022/01/05 05:42:38;;;;;;;1.10;0.90;;;5.50;98.00;;;;;;5052871;28;20542;-70
2022/01/05 05:45:07;;;;;;;1.10;1.00;;;5.60;98.00;;;;;;5052994;28;20517;-70
2022/01/05 05:47:34;;;;;;;1.60;1.00;;;5.70;98.00;;;;;;5051539;28;20536;-70
2022/01/05 05:50:05;;;;;;;1.20;1.00;;;5.40;98.00;;;;;;5052909;28;20477;-70
2022/01/05 05:52:32;;;;;;;1.20;1.00;;;5.00;98.00;;;;;;5052904;28;20604;-70
2022/01/05 05:54:59;;;;;;;1.20;1.00;;;4.60;98.00;;;;;;5052777;28;20497;-70
2022/01/05 05:57:26;;;;;;;1.17;1.00;;;4.30;98.00;;;;;;5051073;28;20512;-70
2022/01/05 05:59:56;;;;;;;1.10;1.03;;;4.20;98.00;;;;;;5052252;28;20532;-70
2022/01/05 06:02:23;;;;;;;1.10;1.00;;;4.10;98.00;;;;;;5052586;28;20518;-70
2022/01/05 06:04:51;;;;;;;1.20;1.00;;;4.00;98.00;;;;;;5052408;28;21015;-70
2022/01/05 06:07:19;;;;;;;1.10;0.90;;;3.90;98.00;;;;;;5052479;28;20944;-70
2022/01/05 06:09:46;;;;;;;1.10;0.90;;;3.60;98.00;;;;;;5052313;28;20489;-70
2022/01/05 06:12:13;;;;;;;1.10;1.00;;;3.40;98.00;;;;;;5052503;28;20492;-70
2022/01/05 06:14:40;;;;;;;1.10;0.90;;;3.40;98.00;;;;;;5051488;28;20964;-70
2022/01/05 06:17:08;;;;;;;1.10;1.00;;;3.40;98.00;;;;;;5051918;28;20493;-70
2022/01/05 06:19:35;;;;;;;1.10;0.97;;;3.20;98.00;;;;;;5052161;28;20572;-70
2022/01/05 06:22:03;;;;;;;1.10;1.00;;;3.20;98.00;;;;;;5051012;28;20569;-70
2022/01/05 06:24:31;;;;;;;3.10;2.07;;;3.10;98.00;;;;;;5050993;28;20567;-70
2022/01/05 06:27:00;;;;;;;1.10;0.90;;;3.00;98.00;;;;;;5051894;28;20457;-69
2022/01/05 06:29:27;;;;;;;1.10;0.90;;;3.00;98.00;;;;;;5052178;28;20512;-70
2022/01/05 06:31:54;;;;;;;1.10;0.97;;;3.00;98.00;;;;;;5051917;28;21007;-70
2022/01/05 06:34:21;;;;;;;2.10;1.57;;;3.20;98.00;;;;;;5051866;28;20540;-70
2022/01/05 06:36:48;;;;;;;1.10;1.00;;;3.30;98.00;;;;;;5051769;28;20540;-70
2022/01/05 06:39:16;;;;;;;1.10;1.03;;;3.20;98.00;;;;;;5051771;28;20473;-69
2022/01/05 06:41:44;;;;;;;1.10;0.90;;;3.30;98.00;;;;;;5051424;28;20460;-69
2022/01/05 06:44:11;;;;;;;1.10;1.00;;;3.30;98.00;;;;;;5051116;28;20485;-69
2022/01/05 06:46:40;;;;;;;1.10;1.00;;;3.40;98.00;;;;;;5050840;28;20485;-69
2022/01/05 06:49:08;;;;;;;1.10;0.90;;;3.40;98.00;;;;;;5051229;28;20454;-69
2022/01/05 06:51:35;;;;;;;1.10;1.00;;;3.40;98.00;;;;;;5051463;28;20540;-69
2022/01/05 06:54:02;;;;;;;1.20;1.20;;;3.30;98.00;;;;;;5051790;28;20506;-69
2022/01/05 06:56:29;;;;;;;1.10;1.10;;;3.30;98.00;;;;;;5050326;28;20537;-70
2022/01/05 06:58:57;;;;;;;1.10;1.00;;;3.40;98.00;;;;;;5051657;28;20547;-70
2022/01/05 07:01:25;;;;;;;1.10;0.90;;;3.40;98.00;;;;;;5051528;28;20453;-69
2022/01/05 07:03:52;;;;;;;1.13;1.10;;;3.40;98.00;;;;;;5050309;28;20899;-70
2022/01/05 07:06:19;;;;;;;1.10;1.00;;;3.50;98.00;;;;;;5051447;28;20493;-70
2022/01/05 07:08:46;;;;;;;1.10;1.00;;;3.50;98.00;;;;;;5051878;28;20504;-69
2022/01/05 07:11:13;;;;;;;1.77;1.40;;;3.60;98.00;;;;;;5051613;28;20536;-70
2022/01/05 07:13:40;;;;;;;1.10;1.03;;;3.70;98.00;;;;;;5051700;28;20489;-70
2022/01/05 07:16:08;;;;;;;1.20;1.10;;;3.60;98.00;;;;;;5051676;28;20544;-70
2022/01/05 07:18:35;;;;;;;1.10;1.00;;;3.50;98.00;;;;;;5050528;28;20843;-70
2022/01/05 07:21:03;;;;;;;1.10;0.90;;;3.50;98.00;;;;;;5051791;28;20461;-70
2022/01/05 07:23:31;;;;;;;1.10;0.90;;;3.50;98.00;;;;;;5051612;28;21049;-70
2022/01/05 07:25:59;;;;;;;1.10;1.00;;;3.60;98.00;;;;;;5052888;28;20557;-69
2022/01/05 07:28:26;;;;;;;1.10;1.00;;;3.70;98.00;;;;;;5037502;28;20457;-70
2022/01/05 07:30:53;;;;;;;1.57;1.47;;;3.70;98.00;;;;;;5037594;28;20482;-70
2022/01/05 07:33:22;;;;;;;1.10;1.00;;;3.70;98.00;;;;;;5055842;28;20955;-70
2022/01/05 07:35:49;;;;;;;1.10;1.00;;;3.60;98.00;;;;;;5055185;28;20456;-69
2022/01/05 07:38:16;;;;;;;1.10;1.00;;;3.50;98.00;;;;;;5055182;28;20517;-70
2022/01/05 07:40:43;;;;;;;1.10;1.00;;;3.40;98.00;;;;;;5055284;28;20936;-70
2022/01/05 07:43:10;;;;;;;1.10;1.00;;;3.30;98.00;;;;;;5055385;28;20497;-70
2022/01/05 07:45:37;;;;;;;1.10;0.93;;;3.20;98.00;;;;;;5053544;28;20577;-70
2022/01/05 07:48:04;;;;;;;1.10;1.00;;;3.10;98.00;;;;;;5055317;28;20880;-70
2022/01/05 07:50:33;;;;;;;1.10;0.93;;;3.00;98.00;;;;;;5055071;28;20472;-70
2022/01/05 07:53:04;;;;;;;1.10;0.90;;;3.00;98.00;;;;;;5054875;28;20488;-70
2022/01/05 07:55:31;;;;;;;1.10;0.90;;;3.00;98.00;;;;;;5054823;28;20469;-70
2022/01/05 07:57:58;;;;;;;1.10;1.00;;;2.90;98.00;;;;;;5054911;28;20480;-70
2022/01/05 08:00:26;;;;;;;1.10;1.00;;;2.70;98.00;;;;;;5054605;28;20461;-70
2022/01/05 08:02:53;;;;;;;1.10;0.90;;;2.80;98.00;;;;;;5053221;28;20468;-70
2022/01/05 08:05:20;;;;;;;1.30;1.23;;;2.80;98.00;;;;;;5054273;28;20572;-69
2022/01/05 08:07:48;;;;;;;1.10;0.90;;;2.80;98.00;;;;;;5054291;28;20501;-70
2022/01/05 08:10:16;;;;;;;1.30;1.10;;;2.70;98.00;;;;;;5054789;28;20453;-70
2022/01/05 08:12:43;;;;;;;1.10;1.00;;;2.70;98.00;;;;;;5054453;28;20497;-71
2022/01/05 08:15:12;;;;;;;1.30;1.23;;;2.80;98.00;;;;;;5054677;28;20500;-70
2022/01/05 08:17:40;;;;;;;1.10;1.00;;;3.00;98.00;;;;;;5054622;28;20963;-70
2022/01/05 08:20:10;;;;;;;1.10;1.00;;;3.00;98.00;;;;;;5054523;28;20828;-71
2022/01/05 08:22:40;;;;;;;1.10;1.00;;;3.00;98.00;;;;;;5054298;28;20464;-72
2022/01/05 08:25:09;;;;;;;1.10;1.00;;;3.20;98.00;;;;;;5054464;28;20481;-71
2022/01/05 08:27:37;;;;;;;1.10;1.10;;;3.20;98.00;;;;;;5054584;28;20449;-71
2022/01/05 08:30:06;;;;;;;1.10;1.00;;;3.10;98.00;;;;;;5053183;28;20547;-70
2022/01/05 08:32:33;;;;;;;1.20;1.20;;;3.10;98.00;;;;;;5054411;28;20458;-71
2022/01/05 08:35:00;;;;;;;1.10;1.10;;;3.20;98.00;;;;;;5054475;28;20505;-70
2022/01/05 08:37:28;;;;;;;1.20;1.20;;;3.30;98.00;;;;;;5051993;28;20492;-70
2022/01/05 08:39:54;;;;;;;1.10;1.00;;;3.50;98.00;;;;;;5054146;28;20481;-70
2022/01/05 08:42:23;;;;;;;1.20;1.20;;;3.60;98.00;;;;;;5054152;28;20483;-70
2022/01/05 08:44:50;;;;;;;1.10;0.90;;;3.50;98.00;;;;;;5054213;28;20582;-70
2022/01/05 08:47:18;;;;;;;1.17;1.00;;;3.40;98.00;;;;;;5052998;28;20490;-69
2022/01/05 08:49:45;;;;;;;1.10;0.90;;;3.40;98.00;;;;;;5054192;28;20873;-70
2022/01/05 08:52:13;;;;;;;1.50;1.17;;;3.40;98.00;;;;;;5054132;28;20559;-71
2022/01/05 08:54:40;;;;;;;1.13;1.00;;;3.50;98.00;;;;;;5054116;28;20454;-71
2022/01/05 08:57:11;;;;;;;1.10;1.00;;;3.50;98.00;;;;;;5039831;28;20547;-72
2022/01/05 08:59:40;;;;;;;1.10;1.10;;;3.50;98.00;;;;;;5041104;28;20454;-73
2022/01/05 09:02:13;;;;;;;1.20;1.10;;;3.50;98.00;;;;;;5032408;28;20493;-72
2022/01/05 09:04:40;;;;;;;1.10;1.00;;;3.50;98.00;;;;;;5048963;28;20543;-72
2022/01/05 09:07:07;;;;;;;1.10;1.00;;;3.50;98.00;;;;;;5040906;28;20550;-73
2022/01/05 09:09:35;;;;;;;6.40;2.03;;;3.50;98.00;;;;;;5039049;28;20488;-71
2022/01/05 09:12:02;;;;;;;1.37;1.20;;;3.40;98.00;;;;;;5032612;28;20552;-72
2022/01/05 09:14:29;;;;;;;1.10;0.90;;;3.40;98.00;;;;;;5041388;28;21047;-73
2022/01/05 09:16:57;;;;;;;1.10;1.00;;;3.40;98.00;;;;;;5031854;28;20490;-73
2022/01/05 09:19:24;;;;;;;1.57;1.20;;;3.40;98.00;;;;;;5038912;28;20481;-73
2022/01/05 09:21:51;;;;;;;1.10;1.00;;;3.30;98.00;;;;;;5049494;28;20536;-73
2022/01/05 09:24:18;;;;;;;1.10;1.00;;;3.40;98.00;;;;;;5042196;28;21007;-73
2022/01/05 09:26:45;;;;;;;1.10;1.00;;;3.40;98.00;;;;;;5040777;28;20493;-73
2022/01/05 09:29:12;;;;;;;1.10;1.00;;;3.30;98.00;;;;;;5047707;28;20497;-71
2022/01/05 09:31:40;;;;;;;1.30;1.10;;;3.30;98.00;;;;;;5033944;28;20563;-71
2022/01/05 09:34:08;;;;;;;1.10;0.90;;;3.30;98.00;;;;;;5031134;28;20557;-71
2022/01/05 09:36:40;;;;;;;1.10;1.00;;;3.30;98.00;;;;;;5032236;28;20486;-71
2022/01/05 09:41:58;;;;;;;1.20;1.10;;;3.30;98.00;;;;;;5040208;28;21167;-71
2022/01/05 09:44:28;;;;;;;1.20;1.00;;;3.30;98.00;;;;;;5023280;28;20482;-71
2022/01/05 09:47:15;;;;;;;1.10;1.00;;;3.30;98.00;;;;;;5039929;28;20494;-71
2022/01/05 09:49:52;;;;;;;1.20;1.00;;;3.20;98.00;;;;;;5031227;28;20501;-68
2022/01/05 09:52:20;;;;;;;1.20;0.90;;;3.20;98.00;;;;;;5032203;28;20453;-67
2022/01/05 09:54:47;;;;;;;1.20;1.00;;;3.10;98.00;;;;;;5040080;28;20547;-71
2022/01/05 09:57:16;;;;;;;1.17;1.00;;;3.20;98.00;;;;;;5035446;28;20535;-72
2022/01/05 09:59:44;;;;;;;1.10;0.90;;;3.20;98.00;;;;;;5043906;28;21185;-73
2022/01/05 10:02:13;;;;;;;1.10;1.00;;;3.20;98.00;;;;;;5031629;28;20533;-67
2022/01/05 10:04:44;;;;;;;1.10;0.90;;;4.20;98.00;;;;;;5032246;28;20951;-70
2022/01/05 10:07:11;;;;;;;1.20;1.10;;;4.70;98.00;;;;;;5040927;28;20585;-71
2022/01/05 10:09:39;;;;;;;1.20;0.90;;;4.60;98.00;;;;;;5035098;28;20561;-70
2022/01/05 10:12:08;;;;;;;1.20;0.90;;;4.10;98.00;;;;;;5038733;28;20523;-71
2022/01/05 10:14:35;;;;;;;3.53;1.40;;;3.80;98.00;;;;;;5035661;28;20544;-70
2022/01/05 10:17:05;;;;;;;1.10;1.00;;;3.80;98.00;;;;;;5039672;28;20455;-71
2022/01/05 10:19:33;;;;;;;1.20;1.10;;;3.60;98.00;;;;;;5043773;28;20485;-71
2022/01/05 10:22:03;;;;;;;1.20;1.00;;;3.70;98.00;;;;;;5043853;28;20493;-71
2022/01/05 10:24:43;;;;;;;1.10;0.93;;;3.70;98.00;;;;;;5043587;28;20511;-69
2022/01/05 10:27:16;;;;;;;1.87;1.10;;;3.70;98.00;;;;;;5045925;28;20485;-69
2022/01/05 10:30:05;;;;;;;1.20;1.00;;;3.60;98.00;;;;;;5030730;28;20497;-68
2022/01/05 10:32:34;;;;;;;1.20;1.20;;;3.40;98.00;;;;;;5039401;28;20621;-68
2022/01/05 10:35:12;;;;;;;1.20;1.00;;;3.40;98.00;;;;;;5027934;28;20549;-68
2022/01/05 10:37:43;;;;;;;1.10;0.90;;;3.40;98.00;;;;;;5030701;28;20461;-66
2022/01/05 10:40:17;;;;;;;1.13;1.00;;;3.30;98.00;;;;;;5030859;28;21297;-68
2022/01/05 10:42:45;;;;;;;1.13;0.93;;;3.30;98.00;;;;;;5030937;28;20552;-68
2022/01/05 10:45:16;;;;;;;1.10;0.90;;;3.40;98.00;;;;;;5039853;28;20505;-66
2022/01/05 10:48:03;;;;;;;1.17;1.00;;;3.40;98.00;;;;;;5033518;28;21570;-66
2022/01/05 10:50:30;;;;;;;1.17;0.90;;;3.40;98.00;;;;;;5021262;28;20948;-66
2022/01/05 10:53:03;;;;;;;1.10;1.00;;;3.40;98.00;;;;;;5038721;28;20501;-65
2022/01/05 10:55:32;;;;;;;1.10;1.00;;;3.40;98.00;;;;;;5042225;28;20563;-65
2022/01/05 10:58:02;;;;;;;1.20;1.00;;;3.60;98.00;;;;;;5045180;28;20963;-66
2022/01/05 11:00:35;;;;;;;1.13;1.00;;;3.70;98.00;;;;;;5039866;28;20462;-67
2022/01/05 11:03:02;;;;;;;1.60;1.50;;;3.90;98.00;;;;;;5035586;28;20457;-66
2022/01/05 11:05:30;;;;;;;1.20;1.00;;;3.90;98.00;;;;;;5036284;28;20585;-67
2022/01/05 11:08:09;;;;;;;1.10;1.00;;;3.90;98.00;;;;;;5047685;28;20846;-65
2022/01/05 11:10:36;;;;;;;1.20;1.10;;;3.90;98.00;;;;;;5046912;28;20508;-66
2022/01/05 11:13:03;;;;;;;1.20;1.00;;;3.90;98.00;;;;;;5046399;28;20484;-67
2022/01/05 11:18:18;;;;;;;1.10;0.90;;;3.80;98.00;;;;;;5045923;28;20863;-66
2022/01/05 11:20:49;;;;;;;1.10;1.00;;;3.70;98.00;;;;;;5021704;28;20455;-67
2022/01/05 11:23:18;;;;;;;1.10;1.03;;;3.70;98.00;;;;;;5045655;28;20457;-66
2022/01/05 11:25:47;;;;;;;1.10;1.00;;;3.70;98.00;;;;;;5038588;28;20520;-66
2022/01/05 11:28:16;;;;;;;1.10;0.90;;;3.70;98.00;;;;;;5037895;28;20881;-66
2022/01/05 11:30:44;;;;;;;1.10;1.00;;;3.70;98.00;;;;;;5037583;28;20490;-67
2022/01/05 11:33:11;;;;;;;1.20;1.00;;;3.60;98.00;;;;;;5038155;28;20462;-66
2022/01/05 11:35:39;;;;;;;1.20;0.97;;;3.60;98.00;;;;;;5038722;28;20514;-66
2022/01/05 11:38:08;;;;;;;1.20;1.10;;;3.60;98.00;;;;;;5029947;28;20907;-66
2022/01/05 11:40:39;;;;;;;1.20;1.10;;;3.80;98.00;;;;;;5045881;28;20457;-66
2022/01/05 11:43:10;;;;;;;1.10;1.00;;;3.70;98.00;;;;;;5045193;28;20824;-66
2022/01/05 11:45:44;;;;;;;1.10;1.00;;;3.70;98.00;;;;;;5029541;28;20529;-66
2022/01/05 11:48:16;;;;;;;1.10;1.00;;;3.70;98.00;;;;;;5029533;28;20519;-66
2022/01/05 11:50:46;;;;;;;1.20;1.00;;;3.90;98.00;;;;;;5029445;28;20524;-66
2022/01/05 11:53:13;;;;;;;1.60;1.50;;;4.00;98.00;;;;;;5035345;28;21024;-66
2022/01/05 11:56:04;;;;;;;1.10;0.90;;;4.20;98.00;;;;;;5039432;28;20999;-66
2022/01/05 11:58:33;;;;;;;1.10;0.90;;;4.10;98.00;;;;;;5030612;28;20511;-66
2022/01/05 12:01:23;;;;;;;2.43;1.37;;;4.10;98.00;;;;;;5030023;28;20458;-66
2022/01/05 12:04:05;;;;;;;1.47;1.27;;;4.10;98.00;;;;;;5030259;28;20490;-66
2022/01/05 12:06:34;;;;;;;1.13;1.00;;;4.20;98.00;;;;;;5037713;28;20505;-67
2022/01/05 12:09:03;;;;;;;1.13;1.00;;;4.30;98.00;;;;;;5029980;28;20459;-67
2022/01/05 12:11:34;;;;;;;1.17;1.00;;;4.30;98.00;;;;;;5044676;28;20494;-66
2022/01/05 12:14:02;;;;;;;1.20;1.00;;;4.30;98.00;;;;;;5041004;28;20490;-69
2022/01/05 12:16:29;;;;;;;1.20;1.10;;;4.20;98.00;;;;;;5041111;28;20531;-68
2022/01/05 12:19:14;;;;;;;1.20;1.00;;;4.20;98.00;;;;;;5043451;28;20969;-67
2022/01/05 12:21:43;;;;;;;1.10;0.90;;;4.10;98.00;;;;;;5038496;28;20462;-66
2022/01/05 12:24:11;;;;;;;1.20;1.00;;;4.10;98.00;;;;;;5041499;28;20541;-66
2022/01/05 12:26:40;;;;;;;1.60;1.40;;;4.10;98.00;;;;;;5041093;28;20576;-66
2022/01/05 12:29:07;;;;;;;1.20;1.00;;;4.10;98.00;;;;;;5034228;28;20529;-66
2022/01/05 12:31:58;;;;;;;1.10;1.00;;;4.10;98.00;;;;;;5033574;28;20886;-66
2022/01/05 12:34:51;;;;;;;1.20;1.10;;;4.30;98.00;;;;;;5048783;28;20465;-65
2022/01/05 12:37:44;;;;;;;1.63;1.40;;;4.10;98.00;;;;;;5040802;28;20464;-69
2022/01/05 12:40:28;;;;;;;1.13;1.00;;;3.90;98.00;;;;;;5013729;28;20482;-66
2022/01/05 12:43:36;;;;;;;1.67;1.10;;;3.80;98.00;;;;;;5012467;28;20513;-66
2022/01/05 12:46:08;;;;;;;1.20;0.90;;;3.80;98.00;;;;;;5010590;28;20487;-66
2022/01/05 12:49:10;;;;;;;1.10;1.00;;;3.80;98.00;;;;;;5013835;28;20451;-66
2022/01/05 12:51:44;;;;;;;1.20;1.00;;;3.90;98.00;;;;;;5013622;28;20463;-66
2022/01/05 12:54:16;;;;;;;1.10;1.00;;;3.90;98.00;;;;;;5013268;28;20536;-66
2022/01/05 12:56:45;;;;;;;1.20;1.00;;;3.90;98.00;;;;;;5013582;28;20940;-66
2022/01/05 12:59:20;;;;;;;1.10;1.00;;;3.90;98.00;;;;;;5013654;28;20529;-66
2022/01/05 13:01:47;;;;;;;1.20;0.90;;;4.00;98.00;;;;;;5013623;28;20483;-66
2022/01/05 13:04:15;;;;;;;1.20;1.10;;;4.10;98.00;;;;;;5013388;28;20509;-66
2022/01/05 13:06:43;;;;;;;1.17;1.00;;;4.20;98.00;;;;;;5013064;28;20487;-66
2022/01/05 13:09:12;;;;;;;1.10;0.90;;;4.10;98.00;;;;;;5013392;28;20494;-66
2022/01/05 13:11:44;;;;;;;1.10;1.00;;;4.10;98.00;;;;;;5013031;28;20491;-66
2022/01/05 13:14:20;;;;;;;3.30;1.37;;;4.20;98.00;;;;;;5011789;28;20467;-66